sensor_id;sensor_type;location;lat;lon;timestamp;pressure;altitude;pressure_sealevel;temperature;humidity
14242;BME280;7205;50.864;12.766;2023-02-01T00:01:05;97561.28;;;5.37;78.02
14242;BME280;7205;50.864;12.766;2023-02-01T00:03:32;97571.06;;;5.35;77.66
14242;BME280;7205;50.864;12.766;2023-02-01T00:06:00;97560.75;;;5.33;78.12
14242;BME280;7205;50.864;12.766;2023-02-01T00:08:27;97569.59;;;5.32;77.96
14242;BME280;7205;50.864;12.766;2023-02-01T00:11:00;97556.19;;;5.35;77.17
14242;BME280;7205;50.864;12.766;2023-02-01T00:13:28;97550.28;;;5.33;76.91
14242;BME280;7205;50.864;12.766;2023-02-01T00:16:04;97557.97;;;5.35;77.33
14242;BME280;7205;50.864;12.766;2023-02-01T00:18:31;97557.19;;;5.34;76.84
14242;BME280;7205;50.864;12.766;2023-02-01T00:20:57;97569.97;;;5.37;76.70
14242;BME280;7205;50.864;12.766;2023-02-01T00:23:24;97562.13;;;5.37;76.51
14242;BME280;7205;50.864;12.766;2023-02-01T00:25:51;97557.84;;;5.36;75.85
14242;BME280;7205;50.864;12.766;2023-02-01T00:28:18;97564.06;;;5.35;75.08
14242;BME280;7205;50.864;12.766;2023-02-01T00:30:45;97559.13;;;5.32;74.86
14242;BME280;7205;50.864;12.766;2023-02-01T00:33:13;97559.91;;;5.33;74.59
14242;BME280;7205;50.864;12.766;2023-02-01T00:35:40;97554.56;;;5.34;74.20
14242;BME280;7205;50.864;12.766;2023-02-01T00:38:07;97551.94;;;5.34;73.87
14242;BME280;7205;50.864;12.766;2023-02-01T00:40:33;97551.78;;;5.36;73.83
14242;BME280;7205;50.864;12.766;2023-02-01T00:43:00;97553.44;;;5.37;73.73
14242;BME280;7205;50.864;12.766;2023-02-01T00:45:27;97554.41;;;5.36;73.71
14242;BME280;7205;50.864;12.766;2023-02-01T00:47:54;97549.19;;;5.36;73.57
14242;BME280;7205;50.864;12.766;2023-02-01T00:50:22;97557.84;;;5.36;74.06
14242;BME280;7205;50.864;12.766;2023-02-01T00:52:49;97558.66;;;5.37;73.90
14242;BME280;7205;50.864;12.766;2023-02-01T00:55:16;97563.22;;;5.35;73.57
14242;BME280;7205;50.864;12.766;2023-02-01T00:57:42;97566.81;;;5.34;73.14
14242;BME280;7205;50.864;12.766;2023-02-01T01:00:10;97565.84;;;5.35;73.35
14242;BME280;7205;50.864;12.766;2023-02-01T01:02:37;97557.19;;;5.34;72.77
14242;BME280;7205;50.864;12.766;2023-02-01T01:05:04;97563.22;;;5.35;72.82
14242;BME280;7205;50.864;12.766;2023-02-01T01:07:32;97568.44;;;5.35;72.82
14242;BME280;7205;50.864;12.766;2023-02-01T01:10:00;97571.06;;;5.35;72.40
14242;BME280;7205;50.864;12.766;2023-02-01T01:12:27;97573.69;;;5.35;72.22
14242;BME280;7205;50.864;12.766;2023-02-01T01:14:54;97565.03;;;5.34;72.22
14242;BME280;7205;50.864;12.766;2023-02-01T01:17:20;97562.41;;;5.34;72.55
14242;BME280;7205;50.864;12.766;2023-02-01T01:19:47;97575.63;;;5.33;72.32
14242;BME280;7205;50.864;12.766;2023-02-01T01:22:14;97569.44;;;5.34;71.99
14242;BME280;7205;50.864;12.766;2023-02-01T01:24:42;97570.28;;;5.34;71.98
14242;BME280;7205;50.864;12.766;2023-02-01T01:27:09;97568.75;;;5.32;71.43
14242;BME280;7205;50.864;12.766;2023-02-01T01:29:36;97560.22;;;5.30;71.80
14242;BME280;7205;50.864;12.766;2023-02-01T01:32:03;97568.22;;;5.28;71.39
14242;BME280;7205;50.864;12.766;2023-02-01T01:34:29;97567.53;;;5.26;71.36
14242;BME280;7205;50.864;12.766;2023-02-01T01:36:56;97562.13;;;5.28;70.78
14242;BME280;7205;50.864;12.766;2023-02-01T01:39:23;97556.09;;;5.27;70.95
14242;BME280;7205;50.864;12.766;2023-02-01T01:41:51;97564.75;;;5.28;70.71
14242;BME280;7205;50.864;12.766;2023-02-01T01:44:58;97566.44;;;5.29;70.89
14242;BME280;7205;50.864;12.766;2023-02-01T01:47:31;97566.72;;;5.26;70.48
14242;BME280;7205;50.864;12.766;2023-02-01T01:50:01;97548.53;;;5.24;70.48
14242;BME280;7205;50.864;12.766;2023-02-01T01:52:29;97562.59;;;5.23;70.42
14242;BME280;7205;50.864;12.766;2023-02-01T01:54:57;97553.91;;;5.23;70.01
14242;BME280;7205;50.864;12.766;2023-02-01T01:57:29;97546.88;;;5.23;70.05
14242;BME280;7205;50.864;12.766;2023-02-01T02:00:03;97541.66;;;5.23;70.33
14242;BME280;7205;50.864;12.766;2023-02-01T02:02:40;97543.44;;;5.23;69.60
14242;BME280;7205;50.864;12.766;2023-02-01T02:05:09;97547.56;;;5.25;70.02
14242;BME280;7205;50.864;12.766;2023-02-01T02:07:38;97545.78;;;5.26;69.70
14242;BME280;7205;50.864;12.766;2023-02-01T02:10:08;97536.13;;;5.26;69.45
14242;BME280;7205;50.864;12.766;2023-02-01T02:12:39;97534.31;;;5.27;69.87
14242;BME280;7205;50.864;12.766;2023-02-01T02:15:07;97535.31;;;5.26;69.79
14242;BME280;7205;50.864;12.766;2023-02-01T02:17:40;97521.38;;;5.25;69.57
14242;BME280;7205;50.864;12.766;2023-02-01T02:20:52;97525.50;;;5.28;69.12
14242;BME280;7205;50.864;12.766;2023-02-01T02:23:49;97529.09;;;5.27;68.73
14242;BME280;7205;50.864;12.766;2023-02-01T02:35:29;97511.47;;;5.29;68.50
14242;BME280;7205;50.864;12.766;2023-02-01T02:38:06;97512.28;;;5.29;68.47
14242;BME280;7205;50.864;12.766;2023-02-01T02:40:46;97517.66;;;5.28;68.67
14242;BME280;7205;50.864;12.766;2023-02-01T02:43:21;97498.53;;;5.27;68.57
14242;BME280;7205;50.864;12.766;2023-02-01T02:46:12;97489.69;;;5.28;68.62
14242;BME280;7205;50.864;12.766;2023-02-01T02:49:04;97491.34;;;5.29;68.46
14242;BME280;7205;50.864;12.766;2023-02-01T02:51:39;97488.84;;;5.28;67.87
14242;BME280;7205;50.864;12.766;2023-02-01T02:54:26;97492.59;;;5.25;67.99
14242;BME280;7205;50.864;12.766;2023-02-01T02:57:16;97491.63;;;5.26;67.77
14242;BME280;7205;50.864;12.766;2023-02-01T03:00:04;97489.16;;;5.25;67.45
14242;BME280;7205;50.864;12.766;2023-02-01T03:02:49;97492.75;;;5.24;67.65
14242;BME280;7205;50.864;12.766;2023-02-01T03:05:34;97496.84;;;5.26;67.23
14242;BME280;7205;50.864;12.766;2023-02-01T03:08:04;97497.69;;;5.27;67.75
14242;BME280;7205;50.864;12.766;2023-02-01T03:10:53;97490.81;;;5.26;67.56
14242;BME280;7205;50.864;12.766;2023-02-01T03:13:28;97484.75;;;5.25;67.39
14242;BME280;7205;50.864;12.766;2023-02-01T03:16:00;97491.91;;;5.23;67.32
14242;BME280;7205;50.864;12.766;2023-02-01T03:18:33;97485.84;;;5.23;67.56
14242;BME280;7205;50.864;12.766;2023-02-01T03:21:06;97485.06;;;5.22;67.13
14242;BME280;7205;50.864;12.766;2023-02-01T03:23:36;97486.84;;;5.22;67.27
14242;BME280;7205;50.864;12.766;2023-02-01T03:26:05;97490.44;;;5.21;66.98
14242;BME280;7205;50.864;12.766;2023-02-01T03:28:34;97497.97;;;5.24;67.68
14242;BME280;7205;50.864;12.766;2023-02-01T03:31:03;97492.91;;;5.22;67.27
14242;BME280;7205;50.864;12.766;2023-02-01T03:33:30;97493.69;;;5.23;67.15
14242;BME280;7205;50.864;12.766;2023-02-01T03:36:15;97496.31;;;5.23;67.30
14242;BME280;7205;50.864;12.766;2023-02-01T03:38:50;97498.94;;;5.23;67.17
14242;BME280;7205;50.864;12.766;2023-02-01T03:41:26;97487.66;;;5.22;67.34
14242;BME280;7205;50.864;12.766;2023-02-01T03:44:00;97486.69;;;5.23;67.40
14242;BME280;7205;50.864;12.766;2023-02-01T03:46:31;97497.16;;;5.23;67.30
14242;BME280;7205;50.864;12.766;2023-02-01T03:49:03;97497.97;;;5.24;66.75
14242;BME280;7205;50.864;12.766;2023-02-01T03:51:34;97497.97;;;5.24;66.79
14242;BME280;7205;50.864;12.766;2023-02-01T03:54:05;97496.06;;;5.26;66.83
14242;BME280;7205;50.864;12.766;2023-02-01T03:56:36;97487.53;;;5.24;66.73
14242;BME280;7205;50.864;12.766;2023-02-01T03:59:04;97499.91;;;5.22;66.73
14242;BME280;7205;50.864;12.766;2023-02-01T04:01:34;97498.44;;;5.19;66.17
14242;BME280;7205;50.864;12.766;2023-02-01T04:04:01;97485.47;;;5.18;66.68
14242;BME280;7205;50.864;12.766;2023-02-01T04:06:30;97478.75;;;5.15;66.69
14242;BME280;7205;50.864;12.766;2023-02-01T04:09:01;97482.34;;;5.14;66.21
14242;BME280;7205;50.864;12.766;2023-02-01T04:11:29;97472.16;;;5.11;66.56
14242;BME280;7205;50.864;12.766;2023-02-01T04:13:56;97471.59;;;5.07;66.04
14242;BME280;7205;50.864;12.766;2023-02-01T04:16:23;97470.81;;;5.07;66.67
14242;BME280;7205;50.864;12.766;2023-02-01T04:18:49;97469.28;;;5.04;66.38
14242;BME280;7205;50.864;12.766;2023-02-01T04:21:16;97465.97;;;5.02;66.46
14242;BME280;7205;50.864;12.766;2023-02-01T04:23:43;97459.25;;;5.00;66.23
14242;BME280;7205;50.864;12.766;2023-02-01T04:26:10;97461.19;;;4.98;66.58
14242;BME280;7205;50.864;12.766;2023-02-01T04:28:38;97453.34;;;4.98;66.33
14242;BME280;7205;50.864;12.766;2023-02-01T04:31:04;97442.78;;;4.90;66.83
14242;BME280;7205;50.864;12.766;2023-02-01T04:33:31;97445.78;;;4.95;67.00
14242;BME280;7205;50.864;12.766;2023-02-01T04:35:58;97446.63;;;4.95;66.67
14242;BME280;7205;50.864;12.766;2023-02-01T04:38:25;97449.09;;;4.97;66.82
14242;BME280;7205;50.864;12.766;2023-02-01T04:40:52;97439.44;;;4.97;66.56
14242;BME280;7205;50.864;12.766;2023-02-01T04:43:19;97434.06;;;4.99;66.56
14242;BME280;7205;50.864;12.766;2023-02-01T04:45:50;97436.66;;;4.99;66.76
14242;BME280;7205;50.864;12.766;2023-02-01T04:48:18;97424.56;;;4.98;66.99
14242;BME280;7205;50.864;12.766;2023-02-01T04:50:46;97414.94;;;4.98;66.84
14242;BME280;7205;50.864;12.766;2023-02-01T04:53:13;97419.88;;;5.01;67.41
14242;BME280;7205;50.864;12.766;2023-02-01T04:55:41;97414.34;;;5.04;67.49
14242;BME280;7205;50.864;12.766;2023-02-01T04:58:08;97408.97;;;5.06;67.47
14242;BME280;7205;50.864;12.766;2023-02-01T05:00:35;97406.03;;;5.09;66.92
14242;BME280;7205;50.864;12.766;2023-02-01T05:03:03;97399.84;;;5.10;66.81
14242;BME280;7205;50.864;12.766;2023-02-01T05:05:30;97402.47;;;5.10;67.20
14242;BME280;7205;50.864;12.766;2023-02-01T05:07:57;97397.25;;;5.10;66.80
14242;BME280;7205;50.864;12.766;2023-02-01T05:10:24;97380.72;;;5.09;67.27
14242;BME280;7205;50.864;12.766;2023-02-01T05:12:51;97379.22;;;5.07;67.26
14242;BME280;7205;50.864;12.766;2023-02-01T05:15:35;97370.69;;;5.05;67.24
14242;BME280;7205;50.864;12.766;2023-02-01T05:18:04;97380.34;;;5.04;67.60
14242;BME280;7205;50.864;12.766;2023-02-01T05:20:30;97364.94;;;5.01;67.88
14242;BME280;7205;50.864;12.766;2023-02-01T05:22:57;97356.41;;;4.99;68.53
14242;BME280;7205;50.864;12.766;2023-02-01T05:25:24;97361.63;;;4.99;68.83
14242;BME280;7205;50.864;12.766;2023-02-01T05:27:51;97364.41;;;4.98;69.09
14242;BME280;7205;50.864;12.766;2023-02-01T05:30:19;97349.00;;;4.95;69.05
14242;BME280;7205;50.864;12.766;2023-02-01T05:32:49;97350.78;;;4.94;69.51
14242;BME280;7205;50.864;12.766;2023-02-01T05:35:18;97343.94;;;4.93;69.28
14242;BME280;7205;50.864;12.766;2023-02-01T05:37:45;97357.69;;;4.95;69.09
14242;BME280;7205;50.864;12.766;2023-02-01T05:40:12;97348.03;;;4.96;69.73
14242;BME280;7205;50.864;12.766;2023-02-01T05:42:38;97356.56;;;4.98;69.42
14242;BME280;7205;50.864;12.766;2023-02-01T05:45:06;97356.56;;;4.98;70.11
14242;BME280;7205;50.864;12.766;2023-02-01T05:47:33;97368.38;;;5.02;70.21
14242;BME280;7205;50.864;12.766;2023-02-01T05:50:00;97371.81;;;5.02;69.99
14242;BME280;7205;50.864;12.766;2023-02-01T05:52:28;97370.84;;;5.03;70.22
14242;BME280;7205;50.864;12.766;2023-02-01T05:54:55;97364.63;;;5.04;70.21
14242;BME280;7205;50.864;12.766;2023-02-01T05:57:22;97369.03;;;5.04;70.10
14242;BME280;7205;50.864;12.766;2023-02-01T05:59:49;97359.56;;;5.03;70.59
14242;BME280;7205;50.864;12.766;2023-02-01T06:02:16;97358.88;;;5.01;70.67
14242;BME280;7205;50.864;12.766;2023-02-01T06:04:43;97358.34;;;4.97;70.99
14242;BME280;7205;50.864;12.766;2023-02-01T06:07:10;97355.06;;;4.95;71.01
14242;BME280;7205;50.864;12.766;2023-02-01T06:09:38;97350.13;;;4.92;70.81
14242;BME280;7205;50.864;12.766;2023-02-01T06:12:05;97349.56;;;4.89;71.03
14242;BME280;7205;50.864;12.766;2023-02-01T06:14:32;97362.81;;;4.87;71.26
14242;BME280;7205;50.864;12.766;2023-02-01T06:16:59;97351.00;;;4.83;70.92
14242;BME280;7205;50.864;12.766;2023-02-01T06:19:26;97362.00;;;4.87;71.20
14242;BME280;7205;50.864;12.766;2023-02-01T06:21:53;97349.72;;;4.87;71.53
14242;BME280;7205;50.864;12.766;2023-02-01T06:24:19;97352.88;;;4.91;71.42
14242;BME280;7205;50.864;12.766;2023-02-01T06:26:48;97361.41;;;4.93;71.90
14242;BME280;7205;50.864;12.766;2023-02-01T06:29:14;97368.16;;;4.95;71.66
14242;BME280;7205;50.864;12.766;2023-02-01T06:31:41;97362.91;;;4.95;71.83
14242;BME280;7205;50.864;12.766;2023-02-01T06:34:09;97364.56;;;4.96;71.68
14242;BME280;7205;50.864;12.766;2023-02-01T06:36:36;97365.38;;;4.97;71.23
14242;BME280;7205;50.864;12.766;2023-02-01T06:39:03;97355.72;;;4.97;71.46
14242;BME280;7205;50.864;12.766;2023-02-01T06:41:30;97358.34;;;4.97;71.70
14242;BME280;7205;50.864;12.766;2023-02-01T06:43:58;97356.56;;;4.98;71.91
14242;BME280;7205;50.864;12.766;2023-02-01T06:46:25;97351.47;;;4.96;72.00
14242;BME280;7205;50.864;12.766;2023-02-01T06:48:51;97356.84;;;4.95;71.99
14242;BME280;7205;50.864;12.766;2023-02-01T06:51:24;97357.97;;;4.92;71.24
14242;BME280;7205;50.864;12.766;2023-02-01T06:53:52;97356.31;;;4.91;71.41
14242;BME280;7205;50.864;12.766;2023-02-01T06:56:18;97347.78;;;4.89;71.41
14242;BME280;7205;50.864;12.766;2023-02-01T06:58:45;97353.84;;;4.90;71.60
14242;BME280;7205;50.864;12.766;2023-02-01T07:01:14;97354.00;;;4.88;71.96
14242;BME280;7205;50.864;12.766;2023-02-01T07:03:41;97341.72;;;4.89;71.34
14242;BME280;7205;50.864;12.766;2023-02-01T07:06:09;97346.00;;;4.90;71.21
14242;BME280;7205;50.864;12.766;2023-02-01T07:08:37;97339.94;;;4.89;71.67
14242;BME280;7205;50.864;12.766;2023-02-01T07:11:04;97339.00;;;4.90;71.25
14242;BME280;7205;50.864;12.766;2023-02-01T07:13:32;97349.47;;;4.90;71.55
14242;BME280;7205;50.864;12.766;2023-02-01T07:15:59;97344.22;;;4.90;71.16
14242;BME280;7205;50.864;12.766;2023-02-01T07:18:30;97344.88;;;4.92;71.16
14242;BME280;7205;50.864;12.766;2023-02-01T07:20:57;97343.78;;;4.95;70.76
14242;BME280;7205;50.864;12.766;2023-02-01T07:23:24;97338.41;;;4.96;70.72
14242;BME280;7205;50.864;12.766;2023-02-01T07:25:53;97342.66;;;4.97;70.26
14242;BME280;7205;50.864;12.766;2023-02-01T07:28:20;97338.25;;;4.98;69.99
14242;BME280;7205;50.864;12.766;2023-02-01T07:30:47;97334.66;;;4.99;69.94
14242;BME280;7205;50.864;12.766;2023-02-01T07:33:20;97338.63;;;5.03;70.12
14242;BME280;7205;50.864;12.766;2023-02-01T07:35:49;97341.09;;;5.04;69.92
14242;BME280;7205;50.864;12.766;2023-02-01T07:38:16;97334.75;;;5.07;69.62
14242;BME280;7205;50.864;12.766;2023-02-01T07:40:44;97326.75;;;5.08;69.84
14242;BME280;7205;50.864;12.766;2023-02-01T07:43:11;97322.03;;;5.12;69.47
14242;BME280;7205;50.864;12.766;2023-02-01T07:45:38;97318.13;;;5.16;69.06
14242;BME280;7205;50.864;12.766;2023-02-01T07:48:05;97324.06;;;5.18;68.99
14242;BME280;7205;50.864;12.766;2023-02-01T07:50:32;97310.66;;;5.21;68.99
14242;BME280;7205;50.864;12.766;2023-02-01T07:53:03;97320.97;;;5.23;68.60
14242;BME280;7205;50.864;12.766;2023-02-01T07:55:30;97308.41;;;5.26;68.58
14242;BME280;7205;50.864;12.766;2023-02-01T07:57:57;97316.00;;;5.29;68.41
14242;BME280;7205;50.864;12.766;2023-02-01T08:00:25;97305.38;;;5.31;68.13
14242;BME280;7205;50.864;12.766;2023-02-01T08:03:09;97307.16;;;5.30;67.22
14242;BME280;7205;50.864;12.766;2023-02-01T08:05:36;97295.84;;;5.30;67.66
14242;BME280;7205;50.864;12.766;2023-02-01T08:08:05;97302.13;;;5.37;67.77
14242;BME280;7205;50.864;12.766;2023-02-01T08:10:32;97301.81;;;5.40;67.52
14242;BME280;7205;50.864;12.766;2023-02-01T08:13:00;97290.25;;;5.42;66.97
14242;BME280;7205;50.864;12.766;2023-02-01T08:15:28;97297.94;;;5.44;66.89
14242;BME280;7205;50.864;12.766;2023-02-01T08:17:55;97292.56;;;5.45;65.98
14242;BME280;7205;50.864;12.766;2023-02-01T08:20:22;97281.09;;;5.46;66.24
14242;BME280;7205;50.864;12.766;2023-02-01T08:22:50;97300.94;;;5.49;66.03
14242;BME280;7205;50.864;12.766;2023-02-01T08:25:19;97294.28;;;5.54;65.86
14242;BME280;7205;50.864;12.766;2023-02-01T08:27:45;97311.47;;;5.57;65.68
14242;BME280;7205;50.864;12.766;2023-02-01T08:30:13;97291.34;;;5.57;65.46
14242;BME280;7205;50.864;12.766;2023-02-01T08:32:40;97302.50;;;5.59;65.25
14242;BME280;7205;50.864;12.766;2023-02-01T08:35:07;97305.75;;;5.61;64.78
14242;BME280;7205;50.864;12.766;2023-02-01T08:37:34;97290.88;;;5.62;65.35
14242;BME280;7205;50.864;12.766;2023-02-01T08:40:02;97310.84;;;5.63;64.39
14242;BME280;7205;50.864;12.766;2023-02-01T08:42:30;97295.13;;;5.63;64.29
14242;BME280;7205;50.864;12.766;2023-02-01T08:45:14;97308.22;;;5.63;64.46
14242;BME280;7205;50.864;12.766;2023-02-01T08:47:41;97312.66;;;5.62;64.27
14242;BME280;7205;50.864;12.766;2023-02-01T08:50:09;97302.34;;;5.61;64.93
14242;BME280;7205;50.864;12.766;2023-02-01T08:52:36;97305.13;;;5.59;65.15
14242;BME280;7205;50.864;12.766;2023-02-01T08:55:03;97295.75;;;5.57;65.01
14242;BME280;7205;50.864;12.766;2023-02-01T08:57:32;97307.38;;;5.54;65.18
14242;BME280;7205;50.864;12.766;2023-02-01T08:59:59;97311.25;;;5.50;65.98
14242;BME280;7205;50.864;12.766;2023-02-01T09:02:26;97301.88;;;5.48;66.71
14242;BME280;7205;50.864;12.766;2023-02-01T09:04:55;97297.13;;;5.43;67.69
14242;BME280;7205;50.864;12.766;2023-02-01T09:07:22;97301.16;;;5.38;68.20
14242;BME280;7205;50.864;12.766;2023-02-01T09:09:49;97295.84;;;5.30;68.41
14242;BME280;7205;50.864;12.766;2023-02-01T09:12:15;97298.94;;;5.25;69.85
14242;BME280;7205;50.864;12.766;2023-02-01T09:14:44;97302.97;;;5.20;69.75
14242;BME280;7205;50.864;12.766;2023-02-01T09:17:10;97301.63;;;5.16;70.67
14242;BME280;7205;50.864;12.766;2023-02-01T09:19:38;97306.19;;;5.13;70.89
14242;BME280;7205;50.864;12.766;2023-02-01T09:22:05;97312.53;;;5.11;71.17
14242;BME280;7205;50.864;12.766;2023-02-01T09:24:32;97311.06;;;5.08;71.75
14242;BME280;7205;50.864;12.766;2023-02-01T09:26:59;97325.25;;;5.06;71.63
14242;BME280;7205;50.864;12.766;2023-02-01T09:29:25;97333.91;;;5.06;72.41
14242;BME280;7205;50.864;12.766;2023-02-01T09:31:54;97328.16;;;5.03;72.52
14242;BME280;7205;50.864;12.766;2023-02-01T09:34:20;97323.38;;;4.98;72.32
14242;BME280;7205;50.864;12.766;2023-02-01T09:36:47;97321.50;;;4.91;72.74
14242;BME280;7205;50.864;12.766;2023-02-01T09:39:14;97331.28;;;4.89;73.00
14242;BME280;7205;50.864;12.766;2023-02-01T09:41:48;97325.53;;;4.85;73.86
14242;BME280;7205;50.864;12.766;2023-02-01T09:44:44;97330.47;;;4.88;74.05
14242;BME280;7205;50.864;12.766;2023-02-01T09:47:15;97328.53;;;4.90;74.04
14242;BME280;7205;50.864;12.766;2023-02-01T09:49:48;97326.41;;;4.94;74.38
14242;BME280;7205;50.864;12.766;2023-02-01T09:52:24;97347.88;;;4.97;73.99
14242;BME280;7205;50.864;12.766;2023-02-01T09:54:55;97343.84;;;5.03;73.78
14242;BME280;7205;50.864;12.766;2023-02-01T09:57:32;97343.13;;;5.10;73.52
14242;BME280;7205;50.864;12.766;2023-02-01T10:00:09;97386.19;;;5.16;73.25
14242;BME280;7205;50.864;12.766;2023-02-01T10:02:42;97356.75;;;5.14;72.92
14242;BME280;7205;50.864;12.766;2023-02-01T10:05:13;97367.47;;;5.11;73.30
14242;BME280;7205;50.864;12.766;2023-02-01T10:07:49;97381.41;;;5.11;73.38
14242;BME280;7205;50.864;12.766;2023-02-01T10:10:28;97369.66;;;5.16;73.55
14242;BME280;7205;50.864;12.766;2023-02-01T10:16:21;97358.59;;;5.22;73.09
14242;BME280;7205;50.864;12.766;2023-02-01T10:19:19;97365.34;;;5.24;73.19
14242;BME280;7205;50.864;12.766;2023-02-01T10:21:54;97381.06;;;5.24;73.26
14242;BME280;7205;50.864;12.766;2023-02-01T10:24:37;97373.56;;;5.29;72.90
14242;BME280;7205;50.864;12.766;2023-02-01T10:27:12;97379.19;;;5.34;72.61
14242;BME280;7205;50.864;12.766;2023-02-01T10:29:41;97386.59;;;5.39;72.87
14242;BME280;7205;50.864;12.766;2023-02-01T10:32:12;97371.94;;;5.46;72.40
14242;BME280;7205;50.864;12.766;2023-02-01T10:34:42;97382.31;;;5.55;71.60
14242;BME280;7205;50.864;12.766;2023-02-01T10:37:17;97381.41;;;5.64;70.39
14242;BME280;7205;50.864;12.766;2023-02-01T10:39:47;97377.34;;;5.70;69.95
14242;BME280;7205;50.864;12.766;2023-02-01T10:42:15;97389.03;;;5.75;68.80
14242;BME280;7205;50.864;12.766;2023-02-01T10:44:43;97391.75;;;5.83;68.20
14242;BME280;7205;50.864;12.766;2023-02-01T10:47:13;97370.31;;;5.88;68.02
14242;BME280;7205;50.864;12.766;2023-02-01T10:49:47;97369.88;;;5.92;67.72
14242;BME280;7205;50.864;12.766;2023-02-01T10:52:20;97376.44;;;5.96;67.08
14242;BME280;7205;50.864;12.766;2023-02-01T10:54:48;97378.63;;;6.01;66.25
14242;BME280;7205;50.864;12.766;2023-02-01T10:57:21;97386.91;;;6.14;66.16
14242;BME280;7205;50.864;12.766;2023-02-01T10:59:51;97373.31;;;6.18;64.82
14242;BME280;7205;50.864;12.766;2023-02-01T11:02:25;97372.72;;;6.24;64.99
14242;BME280;7205;50.864;12.766;2023-02-01T11:05:00;97373.22;;;6.28;64.55
14242;BME280;7205;50.864;12.766;2023-02-01T11:07:28;97377.34;;;6.30;64.19
14242;BME280;7205;50.864;12.766;2023-02-01T11:09:56;97373.72;;;6.31;63.90
14242;BME280;7205;50.864;12.766;2023-02-01T11:12:29;97362.28;;;6.32;64.00
14242;BME280;7205;50.864;12.766;2023-02-01T11:14:59;97367.88;;;6.38;63.94
14242;BME280;7205;50.864;12.766;2023-02-01T11:17:34;97355.63;;;6.46;64.00
14242;BME280;7205;50.864;12.766;2023-02-01T11:20:08;97360.56;;;6.49;63.59
14242;BME280;7205;50.864;12.766;2023-02-01T11:22:45;97374.03;;;6.54;64.23
14242;BME280;7205;50.864;12.766;2023-02-01T11:25:14;97359.81;;;6.65;64.53
14242;BME280;7205;50.864;12.766;2023-02-01T11:27:43;97361.47;;;6.74;64.13
14242;BME280;7205;50.864;12.766;2023-02-01T11:30:15;97350.84;;;6.83;64.30
14242;BME280;7205;50.864;12.766;2023-02-01T11:32:43;97343.81;;;6.84;63.51
14242;BME280;7205;50.864;12.766;2023-02-01T11:35:16;97344.78;;;6.83;63.25
14242;BME280;7205;50.864;12.766;2023-02-01T11:37:48;97368.06;;;6.78;63.07
14242;BME280;7205;50.864;12.766;2023-02-01T11:40:26;97363.25;;;6.73;62.72
14242;BME280;7205;50.864;12.766;2023-02-01T11:42:54;97348.34;;;6.74;62.76
14242;BME280;7205;50.864;12.766;2023-02-01T11:45:25;97359.00;;;6.72;63.03
14242;BME280;7205;50.864;12.766;2023-02-01T11:47:54;97343.28;;;6.72;63.10
14242;BME280;7205;50.864;12.766;2023-02-01T11:50:28;97338.53;;;6.76;63.03
14242;BME280;7205;50.864;12.766;2023-02-01T11:55:55;97321.03;;;6.84;62.40
14242;BME280;7205;50.864;12.766;2023-02-01T11:58:37;97318.72;;;6.89;61.96
14242;BME280;7205;50.864;12.766;2023-02-01T12:07:18;97329.06;;;6.91;60.71
14242;BME280;7205;50.864;12.766;2023-02-01T12:10:04;97318.06;;;6.87;60.61
14242;BME280;7205;50.864;12.766;2023-02-01T12:12:44;97327.91;;;6.85;60.76
14242;BME280;7205;50.864;12.766;2023-02-01T12:15:26;97327.38;;;6.82;60.25
14242;BME280;7205;50.864;12.766;2023-02-01T12:20:59;97325.09;;;6.79;60.02
14242;BME280;7205;50.864;12.766;2023-02-01T12:23:41;97315.09;;;6.82;60.35
14242;BME280;7205;50.864;12.766;2023-02-01T12:29:18;97315.28;;;6.89;60.16
14242;BME280;7205;50.864;12.766;2023-02-01T12:32:06;97313.31;;;6.91;59.97
14242;BME280;7205;50.864;12.766;2023-02-01T12:34:50;97305.78;;;6.96;59.42
14242;BME280;7205;50.864;12.766;2023-02-01T12:37:33;97307.41;;;6.97;59.05
14242;BME280;7205;50.864;12.766;2023-02-01T12:40:21;97304.16;;;6.95;58.38
14242;BME280;7205;50.864;12.766;2023-02-01T12:42:58;97304.97;;;6.95;58.53
14242;BME280;7205;50.864;12.766;2023-02-01T12:45:32;97294.47;;;6.95;58.48
14242;BME280;7205;50.864;12.766;2023-02-01T12:48:08;97294.63;;;6.94;58.72
14242;BME280;7205;50.864;12.766;2023-02-01T12:50:43;97298.09;;;6.94;58.74
14242;BME280;7205;50.864;12.766;2023-02-01T12:53:15;97333.81;;;6.95;58.49
14242;BME280;7205;50.864;12.766;2023-02-01T12:55:50;97302.34;;;6.95;58.08
14242;BME280;7205;50.864;12.766;2023-02-01T12:58:23;97299.03;;;6.93;58.06
14242;BME280;7205;50.864;12.766;2023-02-01T13:00:54;97288.53;;;6.93;58.04
14242;BME280;7205;50.864;12.766;2023-02-01T13:03:33;97309.53;;;6.93;57.94
14242;BME280;7205;50.864;12.766;2023-02-01T13:06:04;97290.38;;;6.93;57.72
14242;BME280;7205;50.864;12.766;2023-02-01T13:08:39;97291.34;;;6.92;57.37
14242;BME280;7205;50.864;12.766;2023-02-01T13:11:14;97287.25;;;6.89;57.57
14242;BME280;7205;50.864;12.766;2023-02-01T13:13:48;97297.75;;;6.89;57.63
14242;BME280;7205;50.864;12.766;2023-02-01T13:16:24;97285.59;;;6.88;57.50
14242;BME280;7205;50.864;12.766;2023-02-01T13:19:00;97291.81;;;6.87;57.26
14242;BME280;7205;50.864;12.766;2023-02-01T13:21:32;97278.72;;;6.87;57.55
14242;BME280;7205;50.864;12.766;2023-02-01T13:23:59;97265.75;;;6.86;57.48
14242;BME280;7205;50.864;12.766;2023-02-01T13:26:27;97284.13;;;6.86;57.65
14242;BME280;7205;50.864;12.766;2023-02-01T13:28:57;97291.81;;;6.87;57.91
14242;BME280;7205;50.864;12.766;2023-02-01T13:31:42;97277.06;;;6.86;58.17
14242;BME280;7205;50.864;12.766;2023-02-01T13:34:46;97261.63;;;6.83;57.88
14242;BME280;7205;50.864;12.766;2023-02-01T13:37:36;97267.38;;;6.79;58.07
14242;BME280;7205;50.864;12.766;2023-02-01T13:40:17;97267.88;;;6.74;58.06
14242;BME280;7205;50.864;12.766;2023-02-01T13:42:49;97249.66;;;6.73;57.99
14242;BME280;7205;50.864;12.766;2023-02-01T13:45:20;97253.25;;;6.72;58.00
14242;BME280;7205;50.864;12.766;2023-02-01T13:47:49;97263.91;;;6.70;58.32
14242;BME280;7205;50.864;12.766;2023-02-01T13:50:23;97275.38;;;6.69;58.24
14242;BME280;7205;50.864;12.766;2023-02-01T13:52:54;97252.91;;;6.67;58.59
14242;BME280;7205;50.864;12.766;2023-02-01T13:55:32;97253.56;;;6.69;58.74
14242;BME280;7205;50.864;12.766;2023-02-01T13:58:05;97246.88;;;6.66;59.00